createdAt,value
2022-08-12T00:03:20.785Z,968.97
2022-08-12T00:08:28.926Z,968.94
2022-08-12T00:13:20.649Z,968.89
2022-08-12T00:18:19.564Z,968.87
2022-08-12T00:23:19.494Z,968.90
2022-08-12T00:28:19.463Z,968.87
2022-08-12T00:33:19.397Z,968.85
2022-08-12T00:38:19.319Z,968.81
2022-08-12T00:43:19.244Z,968.81
2022-08-12T00:48:19.189Z,968.86
2022-08-12T00:53:19.223Z,968.90
2022-08-12T00:58:19.058Z,968.82
2022-08-12T01:03:18.981Z,968.78
2022-08-12T01:08:18.914Z,968.73
2022-08-12T01:13:19.863Z,968.71
2022-08-12T01:18:18.808Z,968.75
2022-08-12T01:23:18.703Z,968.72
2022-08-12T01:28:18.676Z,968.66
2022-08-12T01:33:18.601Z,968.66
2022-08-12T01:38:18.546Z,968.72
2022-08-12T01:43:18.482Z,968.63
2022-08-12T01:48:18.410Z,968.49
2022-08-12T01:53:18.341Z,968.53
2022-08-12T01:58:18.290Z,968.47
2022-08-12T02:03:18.219Z,968.46
2022-08-12T02:08:18.158Z,968.43
2022-08-12T02:13:18.093Z,968.42
2022-08-12T02:18:19.024Z,968.40
2022-08-12T02:23:17.961Z,968.41
2022-08-12T02:28:17.896Z,968.29
2022-08-12T02:33:17.824Z,968.24
2022-08-12T02:38:17.759Z,968.23
2022-08-12T02:43:17.698Z,968.26
2022-08-12T02:48:17.613Z,968.18
2022-08-12T02:53:17.575Z,968.14
2022-08-12T02:58:17.510Z,968.05
2022-08-12T03:03:17.453Z,968.09
2022-08-12T03:08:31.505Z,968.05
2022-08-12T03:13:18.320Z,968.05
2022-08-12T03:18:25.564Z,968.09
2022-08-12T03:23:29.683Z,968.05
2022-08-12T03:28:23.521Z,968.11
2022-08-12T03:33:18.079Z,968.03
2022-08-12T03:38:16.998Z,968.10
2022-08-12T03:43:16.949Z,968.09
2022-08-12T03:48:18.937Z,968.04
2022-08-12T03:53:17.010Z,968.05
2022-08-12T03:58:16.797Z,968.22
2022-08-12T04:03:16.715Z,968.30
2022-08-12T04:08:16.637Z,968.32
2022-08-12T04:13:16.581Z,968.27
2022-08-12T04:18:16.499Z,968.25
2022-08-12T04:23:16.818Z,968.24
2022-08-12T04:28:16.378Z,968.22
2022-08-12T04:33:16.319Z,968.14
2022-08-12T04:38:16.252Z,968.26
2022-08-12T04:44:01.630Z,968.31
2022-08-12T04:48:17.225Z,968.33
2022-08-12T04:53:16.068Z,968.34
2022-08-12T04:58:16.035Z,968.34
2022-08-12T05:03:16.930Z,968.35
2022-08-12T05:08:15.870Z,968.38
2022-08-12T05:13:15.800Z,968.42
2022-08-12T05:18:19.681Z,968.45
2022-08-12T05:23:15.672Z,968.51
2022-08-12T05:28:15.629Z,968.52
2022-08-12T05:33:15.635Z,968.59
2022-08-12T05:38:15.505Z,968.65
2022-08-12T05:43:15.439Z,968.74
2022-08-12T05:48:15.376Z,968.79
2022-08-12T05:53:15.321Z,968.86
2022-08-12T05:58:15.251Z,968.91
2022-08-12T06:03:15.212Z,969.00
2022-08-12T06:08:15.131Z,968.94
2022-08-12T06:13:15.061Z,968.90
2022-08-12T06:18:16.522Z,968.92
2022-08-12T06:23:14.931Z,968.89
2022-08-12T06:28:14.879Z,968.89
2022-08-12T06:33:22.715Z,968.89
2022-08-12T06:38:15.732Z,968.89
2022-08-12T06:43:14.665Z,968.82
2022-08-12T06:48:14.625Z,968.78
2022-08-12T06:53:14.528Z,968.89
2022-08-12T06:58:14.489Z,968.80
2022-08-12T07:03:16.505Z,968.89
2022-08-12T07:08:15.370Z,968.86
2022-08-12T07:13:14.302Z,968.85
2022-08-12T07:18:14.242Z,968.82
2022-08-12T07:23:14.184Z,968.80
2022-08-12T07:28:16.714Z,968.75
2022-08-12T07:33:14.052Z,968.76
2022-08-12T07:38:13.981Z,968.69
2022-08-12T07:43:13.928Z,968.75
2022-08-12T07:48:13.846Z,968.69
2022-08-12T07:53:13.809Z,968.66
2022-08-12T07:58:13.749Z,968.64
2022-08-12T08:03:13.697Z,968.61
2022-08-12T08:08:13.608Z,968.60
2022-08-12T08:13:13.637Z,968.60
2022-08-12T08:18:25.628Z,968.53
2022-08-12T08:23:14.446Z,968.67
2022-08-12T08:28:13.410Z,968.73
2022-08-12T08:33:22.682Z,968.73
2022-08-12T08:38:14.275Z,968.67
2022-08-12T08:43:14.239Z,968.79
2022-08-12T08:48:13.164Z,968.79
2022-08-12T08:53:13.070Z,968.81
2022-08-12T08:58:13.059Z,968.73
2022-08-12T09:04:21.082Z,968.75
2022-08-12T09:08:22.428Z,968.68
2022-08-12T09:13:23.280Z,968.76
2022-08-12T09:18:15.123Z,968.67
2022-08-12T09:28:13.634Z,968.62
2022-08-12T09:33:14.922Z,968.67
2022-08-12T09:38:28.339Z,968.67
2022-08-12T09:43:16.637Z,968.62
2022-08-12T09:48:19.905Z,968.62
2022-08-12T09:53:15.482Z,968.55
2022-08-12T09:58:58.468Z,968.60
2022-08-12T10:03:32.010Z,968.57
2022-08-12T10:08:13.149Z,968.42
2022-08-12T10:13:13.877Z,968.44
2022-08-12T10:18:12.027Z,968.44
2022-08-12T10:23:12.488Z,968.40
2022-08-12T10:28:24.605Z,968.32
2022-08-12T10:33:19.302Z,968.28
2022-08-12T10:38:34.469Z,968.24
2022-08-12T10:43:12.748Z,968.18
2022-08-12T10:48:21.147Z,968.05
2022-08-12T10:53:15.653Z,968.01
2022-08-12T10:58:28.096Z,968.04
2022-08-12T11:04:27.371Z,967.96
2022-08-12T11:08:34.945Z,967.93
2022-08-12T11:13:12.425Z,967.84
2022-08-12T11:18:12.234Z,967.81
2022-08-12T11:23:24.917Z,967.76
2022-08-12T11:28:13.427Z,967.77
2022-08-12T11:33:12.000Z,967.83
2022-08-12T11:38:11.075Z,967.78
2022-08-12T11:43:20.055Z,967.72
2022-08-12T11:48:15.426Z,967.68
2022-08-12T11:53:57.074Z,967.66
2022-08-12T11:59:44.381Z,967.57
2022-08-12T12:03:12.366Z,967.55
2022-08-12T12:08:38.488Z,967.48
2022-08-12T12:13:23.264Z,967.41
2022-08-12T12:18:11.665Z,967.42
2022-08-12T12:23:28.778Z,967.31
2022-08-12T12:28:36.947Z,967.37
2022-08-12T12:33:18.032Z,967.28
2022-08-12T12:38:12.224Z,967.25
2022-08-12T12:43:10.686Z,967.22
2022-08-12T12:48:10.304Z,967.22
2022-08-12T12:53:10.203Z,967.26
2022-08-12T12:58:11.178Z,967.19
2022-08-12T13:03:19.098Z,967.19
2022-08-12T13:08:11.047Z,967.12
2022-08-12T13:13:09.945Z,967.12
2022-08-12T13:18:10.895Z,967.02
2022-08-12T13:23:35.731Z,966.91
2022-08-12T13:28:10.817Z,967.09
2022-08-12T13:33:17.760Z,966.98
2022-08-12T13:38:10.660Z,967.01
2022-08-12T13:43:09.590Z,967.02
2022-08-12T13:48:09.600Z,967.02
2022-08-12T13:53:24.623Z,966.96
2022-08-12T13:58:12.659Z,966.97
2022-08-12T14:03:10.564Z,967.00
2022-08-12T14:08:09.311Z,967.05
2022-08-12T14:13:10.339Z,967.03
2022-08-12T14:18:10.185Z,967.03
2022-08-12T14:24:00.657Z,967.00
2022-08-12T14:28:10.125Z,966.97
2022-08-12T14:33:10.978Z,966.88
2022-08-12T14:38:09.007Z,966.79
2022-08-12T14:43:08.853Z,966.65
2022-08-12T14:48:08.814Z,966.62
2022-08-12T14:57:00.122Z,966.70
2022-08-12T14:58:09.846Z,966.71
2022-08-12T15:03:08.617Z,966.78
2022-08-12T15:08:08.826Z,966.83
2022-08-12T15:13:08.480Z,966.86
2022-08-12T15:18:08.458Z,966.88
2022-08-12T15:23:17.832Z,966.84
2022-08-12T15:28:20.424Z,966.74
2022-08-12T15:33:12.866Z,966.74
2022-08-12T15:38:12.175Z,966.67
2022-08-12T15:43:09.128Z,966.70
2022-08-12T15:48:20.351Z,966.65
2022-08-12T15:53:14.442Z,966.70
2022-08-12T15:58:09.002Z,966.73
2022-08-12T16:03:08.435Z,966.74
2022-08-12T16:08:15.309Z,966.82
2022-08-12T16:13:08.771Z,966.92
2022-08-12T16:18:18.093Z,966.92
2022-08-12T16:23:26.199Z,966.95
2022-08-12T16:28:08.577Z,966.95
2022-08-12T16:33:07.537Z,966.90
2022-08-12T16:38:27.680Z,966.91
2022-08-12T16:43:13.262Z,966.89
2022-08-12T16:48:08.358Z,966.78
2022-08-12T16:53:08.285Z,966.75
2022-08-12T16:58:07.198Z,966.73
2022-08-12T17:03:08.237Z,966.73
2022-08-12T17:08:07.123Z,966.78
2022-08-12T17:13:09.994Z,966.77
2022-08-12T17:18:42.397Z,966.70
2022-08-12T17:23:09.796Z,966.79
2022-08-12T17:28:07.819Z,966.81
2022-08-12T17:33:07.474Z,966.82
2022-08-12T17:38:06.821Z,966.84
2022-08-12T17:43:51.894Z,966.94
2022-08-12T17:48:07.602Z,967.01
2022-08-12T17:53:08.190Z,967.04
2022-08-12T17:58:06.465Z,966.99
2022-08-12T18:03:07.484Z,966.97
2022-08-12T18:08:06.355Z,966.95
2022-08-12T18:13:06.434Z,966.97
2022-08-12T18:18:06.211Z,967.05
2022-08-12T18:23:07.181Z,967.07
2022-08-12T18:28:16.447Z,967.17
2022-08-12T18:33:07.204Z,967.10
2022-08-12T18:38:06.962Z,967.15
2022-08-12T18:43:05.910Z,967.11
2022-08-12T18:48:06.857Z,967.11
2022-08-12T18:53:05.777Z,967.18
2022-08-12T18:58:08.226Z,967.17
2022-08-12T19:03:05.652Z,967.19
2022-08-12T19:08:06.614Z,967.18
2022-08-12T19:13:08.066Z,967.22
2022-08-12T19:18:05.589Z,967.20
2022-08-12T19:23:08.006Z,967.20
2022-08-12T19:28:12.385Z,967.24
2022-08-12T19:33:05.256Z,967.26
2022-08-12T19:38:06.709Z,967.27
2022-08-12T19:43:13.511Z,967.33
2022-08-12T19:48:13.388Z,967.33
2022-08-12T19:53:07.765Z,967.28
2022-08-12T19:58:04.965Z,967.26
2022-08-12T20:03:04.902Z,967.25
2022-08-12T20:08:04.852Z,967.25
2022-08-12T20:13:18.159Z,967.22
2022-08-12T20:18:05.747Z,967.23
2022-08-12T20:23:08.632Z,967.29
2022-08-12T20:28:06.480Z,967.31
2022-08-12T20:33:04.529Z,967.28
2022-08-12T20:38:07.485Z,967.32
2022-08-12T20:43:06.462Z,967.30
2022-08-12T20:48:04.841Z,967.21
2022-08-12T20:53:04.317Z,967.11
2022-08-12T20:58:04.912Z,967.16
2022-08-12T21:03:04.170Z,967.17
2022-08-12T21:08:04.093Z,967.20
2022-08-12T21:13:04.049Z,967.20
2022-08-12T21:18:11.679Z,967.17
2022-08-12T21:23:05.970Z,967.17
2022-08-12T21:28:03.857Z,967.15
2022-08-12T21:33:03.760Z,967.13
2022-08-12T21:38:04.710Z,967.14
2022-08-12T21:43:03.629Z,967.11
2022-08-12T21:48:03.598Z,967.17
2022-08-12T21:53:10.588Z,967.13
2022-08-12T21:58:07.838Z,967.14
2022-08-12T22:03:04.380Z,967.20
2022-08-12T22:08:03.370Z,967.15
2022-08-12T22:13:03.269Z,967.08
2022-08-12T22:18:03.234Z,967.09
2022-08-12T22:23:03.170Z,967.18
2022-08-12T22:28:03.104Z,967.14
2022-08-12T22:33:03.029Z,967.15
2022-08-12T22:38:03.962Z,967.19
2022-08-12T22:43:05.623Z,967.21
2022-08-12T22:48:02.909Z,967.20
2022-08-12T22:53:02.753Z,967.13
2022-08-12T22:58:02.726Z,967.10
2022-08-12T23:03:03.578Z,967.02
2022-08-12T23:08:02.602Z,967.02
2022-08-12T23:13:04.393Z,966.99
2022-08-12T23:18:02.470Z,967.04
2022-08-12T23:23:03.012Z,966.99
2022-08-12T23:28:02.338Z,966.97
2022-08-12T23:33:02.323Z,967.01
2022-08-12T23:38:02.200Z,966.93
2022-08-12T23:43:02.117Z,966.87
2022-08-12T23:48:02.086Z,966.82
2022-08-12T23:53:02.001Z,966.77
2022-08-12T23:58:21.134Z,966.75
